sensor_id;sensor_type;location;lat;lon;timestamp;P1;P2;P0
65012;PMS5003;51715;39.432;-77.518;2023-02-01T00:01:05;7;7;
65012;PMS5003;51715;39.432;-77.518;2023-02-01T00:03:34;12;12;
65012;PMS5003;51715;39.432;-77.518;2023-02-01T00:06:03;10;10;
65012;PMS5003;51715;39.432;-77.518;2023-02-01T00:08:31;14;13;
65012;PMS5003;51715;39.432;-77.518;2023-02-01T00:10:59;14;11;
65012;PMS5003;51715;39.432;-77.518;2023-02-01T00:13:29;14;14;
65012;PMS5003;51715;39.432;-77.518;2023-02-01T00:16:05;10;10;
65012;PMS5003;51715;39.432;-77.518;2023-02-01T00:18:40;16;12;
65012;PMS5003;51715;39.432;-77.518;2023-02-01T00:21:10;9;9;
65012;PMS5003;51715;39.432;-77.518;2023-02-01T00:23:39;11;10;
65012;PMS5003;51715;39.432;-77.518;2023-02-01T00:26:10;12;11;
65012;PMS5003;51715;39.432;-77.518;2023-02-01T00:28:42;11;11;
65012;PMS5003;51715;39.432;-77.518;2023-02-01T00:31:10;14;14;
65012;PMS5003;51715;39.432;-77.518;2023-02-01T00:33:39;15;14;
65012;PMS5003;51715;39.432;-77.518;2023-02-01T00:36:08;11;9;
65012;PMS5003;51715;39.432;-77.518;2023-02-01T00:38:37;10;9;
65012;PMS5003;51715;39.432;-77.518;2023-02-01T00:41:06;11;11;
65012;PMS5003;51715;39.432;-77.518;2023-02-01T00:43:37;15;15;
65012;PMS5003;51715;39.432;-77.518;2023-02-01T00:46:06;15;14;
65012;PMS5003;51715;39.432;-77.518;2023-02-01T00:48:35;14;14;
65012;PMS5003;51715;39.432;-77.518;2023-02-01T00:51:04;17;13;
65012;PMS5003;51715;39.432;-77.518;2023-02-01T00:53:34;14;13;
65012;PMS5003;51715;39.432;-77.518;2023-02-01T00:56:03;14;14;
65012;PMS5003;51715;39.432;-77.518;2023-02-01T00:58:46;13;12;
65012;PMS5003;51715;39.432;-77.518;2023-02-01T01:01:21;17;14;
65012;PMS5003;51715;39.432;-77.518;2023-02-01T01:03:52;13;13;
65012;PMS5003;51715;39.432;-77.518;2023-02-01T01:06:22;17;16;
65012;PMS5003;51715;39.432;-77.518;2023-02-01T01:08:51;24;23;
65012;PMS5003;51715;39.432;-77.518;2023-02-01T01:11:21;22;19;
65012;PMS5003;51715;39.432;-77.518;2023-02-01T01:13:52;74;58;
65012;PMS5003;51715;39.432;-77.518;2023-02-01T01:16:22;48;43;
65012;PMS5003;51715;39.432;-77.518;2023-02-01T01:18:52;74;65;
65012;PMS5003;51715;39.432;-77.518;2023-02-01T01:21:20;28;24;
65012;PMS5003;51715;39.432;-77.518;2023-02-01T01:23:49;25;23;
65012;PMS5003;51715;39.432;-77.518;2023-02-01T01:26:18;30;26;
65012;PMS5003;51715;39.432;-77.518;2023-02-01T01:28:48;39;35;
65012;PMS5003;51715;39.432;-77.518;2023-02-01T01:31:18;29;27;
65012;PMS5003;51715;39.432;-77.518;2023-02-01T01:33:49;77;67;
65012;PMS5003;51715;39.432;-77.518;2023-02-01T01:36:19;48;40;
65012;PMS5003;51715;39.432;-77.518;2023-02-01T01:38:49;66;54;
65012;PMS5003;51715;39.432;-77.518;2023-02-01T01:41:17;34;31;
65012;PMS5003;51715;39.432;-77.518;2023-02-01T01:43:50;25;23;
65012;PMS5003;51715;39.432;-77.518;2023-02-01T01:46:22;32;29;
65012;PMS5003;51715;39.432;-77.518;2023-02-01T01:48:53;27;24;
65012;PMS5003;51715;39.432;-77.518;2023-02-01T01:51:28;30;26;
65012;PMS5003;51715;39.432;-77.518;2023-02-01T05:04:01;26;25;
65012;PMS5003;51715;39.432;-77.518;2023-02-01T05:06:31;32;30;
65012;PMS5003;51715;39.432;-77.518;2023-02-01T05:09:01;34;30;
65012;PMS5003;51715;39.432;-77.518;2023-02-01T05:11:29;29;26;
65012;PMS5003;51715;39.432;-77.518;2023-02-01T05:13:58;27;25;
65012;PMS5003;51715;39.432;-77.518;2023-02-01T05:16:28;28;24;
65012;PMS5003;51715;39.432;-77.518;2023-02-01T05:18:58;31;28;
65012;PMS5003;51715;39.432;-77.518;2023-02-01T05:21:26;31;29;
65012;PMS5003;51715;39.432;-77.518;2023-02-01T05:23:55;29;29;
65012;PMS5003;51715;39.432;-77.518;2023-02-01T05:26:23;31;26;
65012;PMS5003;51715;39.432;-77.518;2023-02-01T05:28:52;29;24;
65012;PMS5003;51715;39.432;-77.518;2023-02-01T05:31:21;32;26;
65012;PMS5003;51715;39.432;-77.518;2023-02-01T05:33:49;30;28;
65012;PMS5003;51715;39.432;-77.518;2023-02-01T05:36:18;35;29;
65012;PMS5003;51715;39.432;-77.518;2023-02-01T05:38:47;24;22;
65012;PMS5003;51715;39.432;-77.518;2023-02-01T05:41:15;25;23;
65012;PMS5003;51715;39.432;-77.518;2023-02-01T05:43:43;31;29;
65012;PMS5003;51715;39.432;-77.518;2023-02-01T05:46:12;38;32;
65012;PMS5003;51715;39.432;-77.518;2023-02-01T05:48:40;32;28;
65012;PMS5003;51715;39.432;-77.518;2023-02-01T05:51:09;35;31;
65012;PMS5003;51715;39.432;-77.518;2023-02-01T05:53:38;36;34;
65012;PMS5003;51715;39.432;-77.518;2023-02-01T05:56:07;41;34;
65012;PMS5003;51715;39.432;-77.518;2023-02-01T05:58:35;35;30;
65012;PMS5003;51715;39.432;-77.518;2023-02-01T06:01:03;38;35;
65012;PMS5003;51715;39.432;-77.518;2023-02-01T06:03:32;40;39;
65012;PMS5003;51715;39.432;-77.518;2023-02-01T06:06:01;46;40;
65012;PMS5003;51715;39.432;-77.518;2023-02-01T06:08:29;36;36;
65012;PMS5003;51715;39.432;-77.518;2023-02-01T06:10:57;51;48;
65012;PMS5003;51715;39.432;-77.518;2023-02-01T06:13:26;45;43;
65012;PMS5003;51715;39.432;-77.518;2023-02-01T06:15:54;45;40;
65012;PMS5003;51715;39.432;-77.518;2023-02-01T06:18:23;34;34;
65012;PMS5003;51715;39.432;-77.518;2023-02-01T06:20:53;38;35;
65012;PMS5003;51715;39.432;-77.518;2023-02-01T06:23:21;39;37;
65012;PMS5003;51715;39.432;-77.518;2023-02-01T06:25:51;39;37;
65012;PMS5003;51715;39.432;-77.518;2023-02-01T06:28:20;43;37;
65012;PMS5003;51715;39.432;-77.518;2023-02-01T06:30:47;45;39;
65012;PMS5003;51715;39.432;-77.518;2023-02-01T06:33:15;43;39;
65012;PMS5003;51715;39.432;-77.518;2023-02-01T06:35:44;52;49;
65012;PMS5003;51715;39.432;-77.518;2023-02-01T06:38:12;35;34;
65012;PMS5003;51715;39.432;-77.518;2023-02-01T06:40:40;53;46;
65012;PMS5003;51715;39.432;-77.518;2023-02-01T06:43:08;45;44;
65012;PMS5003;51715;39.432;-77.518;2023-02-01T06:45:37;44;42;
65012;PMS5003;51715;39.432;-77.518;2023-02-01T06:48:05;42;38;
65012;PMS5003;51715;39.432;-77.518;2023-02-01T06:50:33;47;39;
65012;PMS5003;51715;39.432;-77.518;2023-02-01T06:53:02;42;37;
65012;PMS5003;51715;39.432;-77.518;2023-02-01T06:55:30;47;37;
65012;PMS5003;51715;39.432;-77.518;2023-02-01T06:57:58;36;35;
65012;PMS5003;51715;39.432;-77.518;2023-02-01T07:00:26;41;38;
65012;PMS5003;51715;39.432;-77.518;2023-02-01T07:02:57;40;35;
65012;PMS5003;51715;39.432;-77.518;2023-02-01T07:05:25;30;30;
65012;PMS5003;51715;39.432;-77.518;2023-02-01T07:07:54;36;33;
65012;PMS5003;51715;39.432;-77.518;2023-02-01T07:10:22;32;32;
65012;PMS5003;51715;39.432;-77.518;2023-02-01T07:12:50;36;36;
65012;PMS5003;51715;39.432;-77.518;2023-02-01T07:15:18;39;33;
65012;PMS5003;51715;39.432;-77.518;2023-02-01T07:17:45;32;30;
65012;PMS5003;51715;39.432;-77.518;2023-02-01T07:20:14;44;39;
65012;PMS5003;51715;39.432;-77.518;2023-02-01T07:25:53;39;34;
65012;PMS5003;51715;39.432;-77.518;2023-02-01T07:28:39;36;33;
65012;PMS5003;51715;39.432;-77.518;2023-02-01T07:31:09;29;29;
65012;PMS5003;51715;39.432;-77.518;2023-02-01T07:33:39;36;31;
65012;PMS5003;51715;39.432;-77.518;2023-02-01T07:36:11;36;33;
65012;PMS5003;51715;39.432;-77.518;2023-02-01T07:38:41;34;32;
65012;PMS5003;51715;39.432;-77.518;2023-02-01T07:41:10;34;30;
65012;PMS5003;51715;39.432;-77.518;2023-02-01T07:43:38;32;31;
65012;PMS5003;51715;39.432;-77.518;2023-02-01T07:46:07;37;30;
65012;PMS5003;51715;39.432;-77.518;2023-02-01T07:48:36;33;31;
65012;PMS5003;51715;39.432;-77.518;2023-02-01T07:51:06;36;32;
65012;PMS5003;51715;39.432;-77.518;2023-02-01T07:53:36;36;32;
65012;PMS5003;51715;39.432;-77.518;2023-02-01T07:56:08;35;35;
65012;PMS5003;51715;39.432;-77.518;2023-02-01T07:58:40;32;32;
65012;PMS5003;51715;39.432;-77.518;2023-02-01T08:01:13;36;32;
65012;PMS5003;51715;39.432;-77.518;2023-02-01T08:03:42;35;35;
65012;PMS5003;51715;39.432;-77.518;2023-02-01T08:06:10;34;34;
65012;PMS5003;51715;39.432;-77.518;2023-02-01T08:08:38;38;37;
65012;PMS5003;51715;39.432;-77.518;2023-02-01T08:11:08;37;33;
65012;PMS5003;51715;39.432;-77.518;2023-02-01T08:13:36;37;32;
65012;PMS5003;51715;39.432;-77.518;2023-02-01T08:16:05;37;35;
65012;PMS5003;51715;39.432;-77.518;2023-02-01T08:18:34;45;36;
65012;PMS5003;51715;39.432;-77.518;2023-02-01T08:21:04;33;30;
65012;PMS5003;51715;39.432;-77.518;2023-02-01T08:23:34;38;37;
65012;PMS5003;51715;39.432;-77.518;2023-02-01T08:26:05;39;36;
65012;PMS5003;51715;39.432;-77.518;2023-02-01T08:28:35;37;36;
65012;PMS5003;51715;39.432;-77.518;2023-02-01T08:31:06;36;34;
65012;PMS5003;51715;39.432;-77.518;2023-02-01T08:33:35;32;30;
65012;PMS5003;51715;39.432;-77.518;2023-02-01T08:36:04;35;33;
65012;PMS5003;51715;39.432;-77.518;2023-02-01T08:38:34;36;36;
65012;PMS5003;51715;39.432;-77.518;2023-02-01T08:41:05;39;33;
65012;PMS5003;51715;39.432;-77.518;2023-02-01T08:43:33;35;34;
65012;PMS5003;51715;39.432;-77.518;2023-02-01T08:46:01;39;37;
65012;PMS5003;51715;39.432;-77.518;2023-02-01T08:48:30;34;32;
65012;PMS5003;51715;39.432;-77.518;2023-02-01T08:51:00;35;33;
65012;PMS5003;51715;39.432;-77.518;2023-02-01T08:53:29;33;33;
65012;PMS5003;51715;39.432;-77.518;2023-02-01T08:55:57;36;32;
65012;PMS5003;51715;39.432;-77.518;2023-02-01T08:58:27;42;35;
65012;PMS5003;51715;39.432;-77.518;2023-02-01T09:00:55;35;32;
65012;PMS5003;51715;39.432;-77.518;2023-02-01T09:03:23;33;33;
65012;PMS5003;51715;39.432;-77.518;2023-02-01T09:05:51;37;35;
65012;PMS5003;51715;39.432;-77.518;2023-02-01T09:08:25;28;27;
65012;PMS5003;51715;39.432;-77.518;2023-02-01T09:10:53;41;38;
65012;PMS5003;51715;39.432;-77.518;2023-02-01T09:13:26;39;39;
65012;PMS5003;51715;39.432;-77.518;2023-02-01T09:15:54;37;35;
65012;PMS5003;51715;39.432;-77.518;2023-02-01T09:18:23;39;38;
65012;PMS5003;51715;39.432;-77.518;2023-02-01T09:20:51;30;29;
65012;PMS5003;51715;39.432;-77.518;2023-02-01T09:23:19;36;33;
65012;PMS5003;51715;39.432;-77.518;2023-02-01T09:25:47;33;29;
65012;PMS5003;51715;39.432;-77.518;2023-02-01T09:28:16;36;36;
65012;PMS5003;51715;39.432;-77.518;2023-02-01T09:30:45;34;27;
65012;PMS5003;51715;39.432;-77.518;2023-02-01T09:33:13;31;31;
65012;PMS5003;51715;39.432;-77.518;2023-02-01T09:35:41;30;30;
65012;PMS5003;51715;39.432;-77.518;2023-02-01T09:38:09;31;27;
65012;PMS5003;51715;39.432;-77.518;2023-02-01T09:40:46;34;31;
65012;PMS5003;51715;39.432;-77.518;2023-02-01T09:43:18;38;36;
65012;PMS5003;51715;39.432;-77.518;2023-02-01T09:45:59;37;29;
65012;PMS5003;51715;39.432;-77.518;2023-02-01T09:48:36;24;24;
65012;PMS5003;51715;39.432;-77.518;2023-02-01T09:51:11;31;29;
65012;PMS5003;51715;39.432;-77.518;2023-02-01T09:53:46;27;27;
65012;PMS5003;51715;39.432;-77.518;2023-02-01T09:56:23;24;23;
65012;PMS5003;51715;39.432;-77.518;2023-02-01T09:58:58;33;30;
65012;PMS5003;51715;39.432;-77.518;2023-02-01T10:01:31;30;30;
65012;PMS5003;51715;39.432;-77.518;2023-02-01T10:04:01;26;26;
65012;PMS5003;51715;39.432;-77.518;2023-02-01T10:06:35;28;25;
65012;PMS5003;51715;39.432;-77.518;2023-02-01T10:09:15;24;21;
65012;PMS5003;51715;39.432;-77.518;2023-02-01T10:12:00;24;23;
65012;PMS5003;51715;39.432;-77.518;2023-02-01T10:14:51;30;28;
65012;PMS5003;51715;39.432;-77.518;2023-02-01T10:17:31;25;23;
65012;PMS5003;51715;39.432;-77.518;2023-02-01T10:20:18;27;25;
65012;PMS5003;51715;39.432;-77.518;2023-02-01T10:22:54;23;20;
65012;PMS5003;51715;39.432;-77.518;2023-02-01T10:25:31;29;27;
65012;PMS5003;51715;39.432;-77.518;2023-02-01T10:28:04;25;22;
65012;PMS5003;51715;39.432;-77.518;2023-02-01T10:30:39;27;26;
65012;PMS5003;51715;39.432;-77.518;2023-02-01T10:33:14;18;18;
65012;PMS5003;51715;39.432;-77.518;2023-02-01T10:35:44;22;18;
65012;PMS5003;51715;39.432;-77.518;2023-02-01T10:38:16;20;18;
65012;PMS5003;51715;39.432;-77.518;2023-02-01T10:40:51;21;21;
65012;PMS5003;51715;39.432;-77.518;2023-02-01T10:43:20;17;15;
65012;PMS5003;51715;39.432;-77.518;2023-02-01T10:45:49;28;25;
65012;PMS5003;51715;39.432;-77.518;2023-02-01T10:48:17;22;22;
65012;PMS5003;51715;39.432;-77.518;2023-02-01T10:50:48;26;25;
65012;PMS5003;51715;39.432;-77.518;2023-02-01T10:53:21;26;23;
65012;PMS5003;51715;39.432;-77.518;2023-02-01T10:55:58;24;20;
65012;PMS5003;51715;39.432;-77.518;2023-02-01T10:58:34;18;18;
65012;PMS5003;51715;39.432;-77.518;2023-02-01T11:01:09;20;17;
65012;PMS5003;51715;39.432;-77.518;2023-02-01T11:03:46;30;26;
65012;PMS5003;51715;39.432;-77.518;2023-02-01T11:06:27;20;19;
65012;PMS5003;51715;39.432;-77.518;2023-02-01T11:08:58;30;26;
65012;PMS5003;51715;39.432;-77.518;2023-02-01T11:11:35;22;19;
65012;PMS5003;51715;39.432;-77.518;2023-02-01T11:14:26;21;20;
65012;PMS5003;51715;39.432;-77.518;2023-02-01T11:17:02;18;18;
65012;PMS5003;51715;39.432;-77.518;2023-02-01T11:19:48;29;29;
65012;PMS5003;51715;39.432;-77.518;2023-02-01T11:22:24;39;35;
65012;PMS5003;51715;39.432;-77.518;2023-02-01T11:24:54;22;21;
65012;PMS5003;51715;39.432;-77.518;2023-02-01T11:27:23;19;19;
65012;PMS5003;51715;39.432;-77.518;2023-02-01T11:29:53;17;17;
65012;PMS5003;51715;39.432;-77.518;2023-02-01T11:32:25;21;19;
65012;PMS5003;51715;39.432;-77.518;2023-02-01T11:34:56;32;29;
65012;PMS5003;51715;39.432;-77.518;2023-02-01T11:37:28;19;19;
65012;PMS5003;51715;39.432;-77.518;2023-02-01T11:40:01;17;17;
65012;PMS5003;51715;39.432;-77.518;2023-02-01T11:42:36;17;17;
65012;PMS5003;51715;39.432;-77.518;2023-02-01T11:45:25;20;16;
65012;PMS5003;51715;39.432;-77.518;2023-02-01T11:47:56;15;15;
65012;PMS5003;51715;39.432;-77.518;2023-02-01T11:50:27;18;17;
65012;PMS5003;51715;39.432;-77.518;2023-02-01T11:53:07;21;20;
65012;PMS5003;51715;39.432;-77.518;2023-02-01T11:55:51;20;18;
65012;PMS5003;51715;39.432;-77.518;2023-02-01T11:58:30;17;17;
65012;PMS5003;51715;39.432;-77.518;2023-02-01T12:01:12;21;19;
65012;PMS5003;51715;39.432;-77.518;2023-02-01T12:04:03;19;19;
65012;PMS5003;51715;39.432;-77.518;2023-02-01T12:07:13;22;21;
65012;PMS5003;51715;39.432;-77.518;2023-02-01T12:09:50;25;22;
65012;PMS5003;51715;39.432;-77.518;2023-02-01T12:12:31;28;23;
65012;PMS5003;51715;39.432;-77.518;2023-02-01T12:15:12;27;23;
65012;PMS5003;51715;39.432;-77.518;2023-02-01T12:17:56;18;18;
65012;PMS5003;51715;39.432;-77.518;2023-02-01T12:20:45;17;16;
65012;PMS5003;51715;39.432;-77.518;2023-02-01T12:23:29;24;21;
65012;PMS5003;51715;39.432;-77.518;2023-02-01T12:26:22;20;19;
65012;PMS5003;51715;39.432;-77.518;2023-02-01T12:29:09;23;20;
65012;PMS5003;51715;39.432;-77.518;2023-02-01T12:31:56;23;21;
65012;PMS5003;51715;39.432;-77.518;2023-02-01T12:34:55;18;18;
65012;PMS5003;51715;39.432;-77.518;2023-02-01T12:37:45;23;19;
65012;PMS5003;51715;39.432;-77.518;2023-02-01T12:40:28;23;23;
65012;PMS5003;51715;39.432;-77.518;2023-02-01T12:43:10;18;18;
65012;PMS5003;51715;39.432;-77.518;2023-02-01T12:45:42;20;19;
65012;PMS5003;51715;39.432;-77.518;2023-02-01T12:48:19;22;21;
65012;PMS5003;51715;39.432;-77.518;2023-02-01T12:50:56;27;25;
65012;PMS5003;51715;39.432;-77.518;2023-02-01T12:53:27;24;24;
65012;PMS5003;51715;39.432;-77.518;2023-02-01T12:56:14;28;24;
65012;PMS5003;51715;39.432;-77.518;2023-02-01T12:58:49;22;22;
65012;PMS5003;51715;39.432;-77.518;2023-02-01T13:01:21;24;20;
65012;PMS5003;51715;39.432;-77.518;2023-02-01T13:03:55;20;18;
65012;PMS5003;51715;39.432;-77.518;2023-02-01T13:06:31;24;24;
65012;PMS5003;51715;39.432;-77.518;2023-02-01T13:09:04;23;23;
65012;PMS5003;51715;39.432;-77.518;2023-02-01T13:11:39;24;21;
65012;PMS5003;51715;39.432;-77.518;2023-02-01T13:14:14;18;18;
65012;PMS5003;51715;39.432;-77.518;2023-02-01T13:16:52;19;19;
65012;PMS5003;51715;39.432;-77.518;2023-02-01T13:19:26;22;22;
65012;PMS5003;51715;39.432;-77.518;2023-02-01T13:21:57;24;23;
65012;PMS5003;51715;39.432;-77.518;2023-02-01T13:24:31;18;18;
65012;PMS5003;51715;39.432;-77.518;2023-02-01T13:27:04;18;18;
65012;PMS5003;51715;39.432;-77.518;2023-02-01T13:29:36;27;26;
65012;PMS5003;51715;39.432;-77.518;2023-02-01T13:32:16;20;20;
65012;PMS5003;51715;39.432;-77.518;2023-02-01T13:35:07;21;20;
65012;PMS5003;51715;39.432;-77.518;2023-02-01T13:37:53;18;18;
65012;PMS5003;51715;39.432;-77.518;2023-02-01T13:40:35;21;21;
65012;PMS5003;51715;39.432;-77.518;2023-02-01T13:43:07;22;20;
65012;PMS5003;51715;39.432;-77.518;2023-02-01T13:45:43;19;19;
65012;PMS5003;51715;39.432;-77.518;2023-02-01T13:48:19;24;19;
65012;PMS5003;51715;39.432;-77.518;2023-02-01T13:50:52;22;22;
65012;PMS5003;51715;39.432;-77.518;2023-02-01T13:53:23;19;18;
65012;PMS5003;51715;39.432;-77.518;2023-02-01T13:55:57;19;18;
65012;PMS5003;51715;39.432;-77.518;2023-02-01T13:58:32;25;20;
65012;PMS5003;51715;39.432;-77.518;2023-02-01T14:01:36;19;18;
65012;PMS5003;51715;39.432;-77.518;2023-02-01T14:04:04;18;18;
65012;PMS5003;51715;39.432;-77.518;2023-02-01T14:07:17;21;20;
65012;PMS5003;51715;39.432;-77.518;2023-02-01T14:09:47;26;24;
65012;PMS5003;51715;39.432;-77.518;2023-02-01T14:12:48;22;21;
65012;PMS5003;51715;39.432;-77.518;2023-02-01T14:15:18;18;17;
65012;PMS5003;51715;39.432;-77.518;2023-02-01T14:17:49;19;19;
65012;PMS5003;51715;39.432;-77.518;2023-02-01T14:20:39;26;21;
65012;PMS5003;51715;39.432;-77.518;2023-02-01T14:23:12;21;18;
65012;PMS5003;51715;39.432;-77.518;2023-02-01T14:25:43;22;22;
65012;PMS5003;51715;39.432;-77.518;2023-02-01T14:28:19;19;19;
65012;PMS5003;51715;39.432;-77.518;2023-02-01T14:30:53;23;20;
65012;PMS5003;51715;39.432;-77.518;2023-02-01T14:33:23;21;20;
65012;PMS5003;51715;39.432;-77.518;2023-02-01T14:35:57;22;22;
65012;PMS5003;51715;39.432;-77.518;2023-02-01T14:38:33;18;17;
65012;PMS5003;51715;39.432;-77.518;2023-02-01T14:41:16;25;23;
65012;PMS5003;51715;39.432;-77.518;2023-02-01T14:44:14;21;16;
65012;PMS5003;51715;39.432;-77.518;2023-02-01T14:47:11;17;16;
65012;PMS5003;51715;39.432;-77.518;2023-02-01T14:50:17;18;16;
65012;PMS5003;51715;39.432;-77.518;2023-02-01T14:53:22;18;18;
65012;PMS5003;51715;39.432;-77.518;2023-02-01T14:56:00;16;14;
65012;PMS5003;51715;39.432;-77.518;2023-02-01T14:58:35;16;14;
65012;PMS5003;51715;39.432;-77.518;2023-02-01T15:01:18;15;15;
65012;PMS5003;51715;39.432;-77.518;2023-02-01T15:03:52;16;15;
65012;PMS5003;51715;39.432;-77.518;2023-02-01T15:06:26;17;17;
65012;PMS5003;51715;39.432;-77.518;2023-02-01T15:09:02;17;16;
65012;PMS5003;51715;39.432;-77.518;2023-02-01T15:11:59;20;20;
65012;PMS5003;51715;39.432;-77.518;2023-02-01T15:14:30;19;19;
65012;PMS5003;51715;39.432;-77.518;2023-02-01T15:17:00;16;14;
65012;PMS5003;51715;39.432;-77.518;2023-02-01T15:19:29;15;15;
65012;PMS5003;51715;39.432;-77.518;2023-02-01T15:21:58;19;19;
65012;PMS5003;51715;39.432;-77.518;2023-02-01T15:24:28;19;17;
65012;PMS5003;51715;39.432;-77.518;2023-02-01T15:27:03;20;19;
